createdAt,value
2018-08-08T00:07:48.482Z,34.6
2018-08-08T00:17:47.727Z,34.8
2018-08-08T00:27:46.981Z,34.9
2018-08-08T00:37:46.220Z,35
2018-08-08T00:47:45.463Z,35.1
2018-08-08T00:57:44.702Z,35.3
2018-08-08T01:07:43.944Z,35.3
2018-08-08T01:17:43.189Z,35.4
2018-08-08T01:27:42.436Z,35.6
2018-08-08T01:37:41.677Z,35.6
2018-08-08T01:47:40.918Z,35.7
2018-08-08T01:57:40.160Z,35.8
2018-08-08T02:07:39.404Z,35.9
2018-08-08T02:17:38.658Z,36
2018-08-08T02:27:37.893Z,36.1
2018-08-08T02:37:37.134Z,34.3
2018-08-08T02:47:36.377Z,32.1
2018-08-08T02:57:35.618Z,32.3
2018-08-08T03:07:34.864Z,32.6
2018-08-08T03:17:34.107Z,32.8
2018-08-08T03:27:33.348Z,32.5
2018-08-08T03:37:32.592Z,32.6
2018-08-08T03:47:31.836Z,31.1
2018-08-08T03:57:31.080Z,31.2
2018-08-08T04:07:30.330Z,31.1
2018-08-08T04:17:29.572Z,30.8
2018-08-08T04:27:28.816Z,30.8
2018-08-08T04:37:28.068Z,31.1
2018-08-08T04:47:27.306Z,31.3
2018-08-08T04:57:26.554Z,31.4
2018-08-08T05:07:25.797Z,31.6
2018-08-08T05:17:25.038Z,31.7
2018-08-08T05:27:24.286Z,31.9
2018-08-08T05:37:23.536Z,32.1
2018-08-08T05:47:22.777Z,32.4
2018-08-08T05:57:22.014Z,32.9
2018-08-08T06:07:21.258Z,33.4
2018-08-08T06:17:20.503Z,34
2018-08-08T06:27:19.812Z,34.8
2018-08-08T06:37:18.988Z,35.6
2018-08-08T06:47:18.233Z,36.4
2018-08-08T06:57:17.477Z,37.3
2018-08-08T07:07:16.720Z,38.3
2018-08-08T07:17:15.965Z,39.3
2018-08-08T07:27:15.212Z,40.3
2018-08-08T07:37:14.453Z,41.3
2018-08-08T07:47:13.698Z,42.2
2018-08-08T07:57:12.946Z,43.2
2018-08-08T08:07:12.196Z,44.1
2018-08-08T08:17:11.434Z,45
2018-08-08T08:27:10.680Z,45.9
2018-08-08T08:37:09.924Z,46.8
2018-08-08T08:47:09.168Z,47.6
2018-08-08T08:57:08.410Z,48.3
2018-08-08T09:07:07.658Z,48.9
2018-08-08T09:17:06.899Z,49.6
2018-08-08T09:27:06.144Z,50.4
2018-08-08T09:37:05.389Z,51.1
2018-08-08T09:47:04.629Z,51.8
2018-08-08T09:57:03.875Z,52.5
2018-08-08T10:07:03.125Z,53.1
2018-08-08T10:17:02.379Z,53.8
2018-08-08T10:27:01.648Z,54.4
2018-08-08T10:37:00.843Z,54.9
2018-08-08T10:47:00.089Z,55.5
2018-08-08T10:56:59.332Z,56.2
2018-08-08T11:06:58.579Z,56.9
2018-08-08T11:16:57.892Z,57.6
2018-08-08T11:26:57.125Z,58.3
2018-08-08T11:36:56.354Z,58.9
2018-08-08T11:46:55.607Z,59.5
2018-08-08T11:56:54.804Z,60.1
2018-08-08T12:06:54.050Z,60.6
2018-08-08T12:16:53.347Z,61.3
2018-08-08T12:26:52.540Z,61.9
2018-08-08T12:36:51.784Z,62.5
2018-08-08T12:46:51.036Z,63.1
2018-08-08T12:56:50.274Z,63.8
2018-08-08T13:06:49.525Z,64.4
2018-08-08T13:16:48.764Z,65
2018-08-08T13:26:48.059Z,65.6
2018-08-08T13:36:47.254Z,66.2
2018-08-08T13:46:46.509Z,66.7
2018-08-08T13:56:45.743Z,67.3
2018-08-08T14:06:44.988Z,67.8
2018-08-08T14:16:44.232Z,68.3
2018-08-08T14:26:43.478Z,68.7
2018-08-08T14:36:42.724Z,69.2
2018-08-08T14:46:41.966Z,69.5
2018-08-08T14:56:41.211Z,69.8
2018-08-08T15:06:40.457Z,70.1
2018-08-08T15:16:39.703Z,70.4
2018-08-08T15:26:38.948Z,70.4
2018-08-08T15:36:38.303Z,70.5
2018-08-08T15:46:37.442Z,70.5
2018-08-08T15:56:36.689Z,70.5
2018-08-08T16:06:35.935Z,70.1
2018-08-08T16:16:35.184Z,69.4
2018-08-08T16:26:34.432Z,68.8
2018-08-08T16:36:33.680Z,68.4
2018-08-08T16:46:32.986Z,67.7
2018-08-08T16:56:32.178Z,67.1
2018-08-08T17:06:31.430Z,66.6
2018-08-08T17:16:30.674Z,65.8
2018-08-08T17:26:29.921Z,65.2
2018-08-08T17:36:29.171Z,64.8
2018-08-08T17:46:28.416Z,64.4
2018-08-08T17:56:27.715Z,63.4
2018-08-08T18:06:26.965Z,63
2018-08-08T18:16:26.163Z,62.7
2018-08-08T18:26:25.485Z,60.3
2018-08-08T18:36:24.659Z,59.5
2018-08-08T18:46:23.911Z,58.9
2018-08-08T18:56:23.153Z,58.4
2018-08-08T19:06:22.405Z,57.8
2018-08-08T19:16:21.651Z,56.6
2018-08-08T19:26:20.929Z,56
2018-08-08T19:36:20.160Z,55.4
2018-08-08T19:46:19.398Z,55.3
2018-08-08T19:56:18.650Z,55.3
2018-08-08T20:06:17.904Z,55.2
2018-08-08T20:16:17.145Z,55.1
2018-08-08T20:26:16.443Z,54.9
2018-08-08T20:36:15.637Z,54.9
2018-08-08T20:46:14.885Z,54.8
2018-08-08T20:56:14.135Z,54.7
2018-08-08T21:06:13.379Z,54.6
2018-08-08T21:16:12.625Z,54.5
2018-08-08T21:26:11.890Z,54.4
2018-08-08T21:36:11.126Z,54.4
2018-08-08T21:46:10.418Z,54.3
2018-08-08T21:56:09.614Z,54.2
2018-08-08T22:06:08.867Z,54.1
2018-08-08T22:16:08.110Z,54.1
2018-08-08T22:26:07.358Z,54.1
2018-08-08T22:36:06.604Z,54
2018-08-08T22:46:05.850Z,54
2018-08-08T22:56:05.096Z,53.9
2018-08-08T23:06:04.344Z,53.9
2018-08-08T23:16:03.591Z,53.8
2018-08-08T23:26:02.837Z,53.8
2018-08-08T23:36:02.093Z,53.8
2018-08-08T23:46:01.331Z,53.8
2018-08-08T23:56:00.579Z,53.7
